sensor_id;sensor_type;location;lat;lon;timestamp;P1;durP1;ratioP1;P2;durP2;ratioP2
29854;SDS011;16733;48.738;9.106;2022-12-31T00:01:29;0.82;;;0.50;;
29854;SDS011;16733;48.738;9.106;2022-12-31T00:03:55;0.88;;;0.40;;
29854;SDS011;16733;48.738;9.106;2022-12-31T00:06:22;3.00;;;0.40;;
29854;SDS011;16733;48.738;9.106;2022-12-31T00:08:53;0.68;;;0.40;;
29854;SDS011;16733;48.738;9.106;2022-12-31T00:11:21;0.32;;;0.32;;
29854;SDS011;16733;48.738;9.106;2022-12-31T00:13:47;0.73;;;0.52;;
29854;SDS011;16733;48.738;9.106;2022-12-31T00:16:15;0.93;;;0.60;;
29854;SDS011;16733;48.738;9.106;2022-12-31T00:18:46;0.60;;;0.40;;
29854;SDS011;16733;48.738;9.106;2022-12-31T00:21:13;3.97;;;1.20;;
29854;SDS011;16733;48.738;9.106;2022-12-31T00:23:40;2.55;;;0.90;;
29854;SDS011;16733;48.738;9.106;2022-12-31T00:26:08;0.50;;;0.43;;
29854;SDS011;16733;48.738;9.106;2022-12-31T00:28:36;0.45;;;0.45;;
29854;SDS011;16733;48.738;9.106;2022-12-31T00:31:03;0.68;;;0.47;;
29854;SDS011;16733;48.738;9.106;2022-12-31T00:33:30;0.43;;;0.35;;
29854;SDS011;16733;48.738;9.106;2022-12-31T00:36:02;0.70;;;0.38;;
29854;SDS011;16733;48.738;9.106;2022-12-31T00:38:38;0.43;;;0.43;;
29854;SDS011;16733;48.738;9.106;2022-12-31T00:41:04;0.40;;;0.40;;
29854;SDS011;16733;48.738;9.106;2022-12-31T00:43:31;0.68;;;0.40;;
29854;SDS011;16733;48.738;9.106;2022-12-31T00:45:57;0.70;;;0.40;;
29854;SDS011;16733;48.738;9.106;2022-12-31T00:48:24;1.10;;;0.40;;
29854;SDS011;16733;48.738;9.106;2022-12-31T00:50:50;0.60;;;0.40;;
29854;SDS011;16733;48.738;9.106;2022-12-31T00:53:16;1.05;;;0.50;;
29854;SDS011;16733;48.738;9.106;2022-12-31T00:55:42;1.13;;;0.40;;
29854;SDS011;16733;48.738;9.106;2022-12-31T00:58:07;0.60;;;0.40;;
29854;SDS011;16733;48.738;9.106;2022-12-31T01:00:34;1.25;;;0.40;;
29854;SDS011;16733;48.738;9.106;2022-12-31T01:03:00;0.80;;;0.50;;
29854;SDS011;16733;48.738;9.106;2022-12-31T01:05:26;2.28;;;0.40;;
29854;SDS011;16733;48.738;9.106;2022-12-31T01:07:51;0.60;;;0.30;;
29854;SDS011;16733;48.738;9.106;2022-12-31T01:10:17;0.73;;;0.40;;
29854;SDS011;16733;48.738;9.106;2022-12-31T01:13:03;1.85;;;0.60;;
29854;SDS011;16733;48.738;9.106;2022-12-31T01:15:31;0.38;;;0.38;;
29854;SDS011;16733;48.738;9.106;2022-12-31T01:17:58;0.50;;;0.40;;
29854;SDS011;16733;48.738;9.106;2022-12-31T01:20:24;0.88;;;0.38;;
29854;SDS011;16733;48.738;9.106;2022-12-31T01:22:49;1.95;;;0.50;;
29854;SDS011;16733;48.738;9.106;2022-12-31T01:25:15;1.60;;;0.68;;
29854;SDS011;16733;48.738;9.106;2022-12-31T01:27:40;1.88;;;0.40;;
29854;SDS011;16733;48.738;9.106;2022-12-31T01:30:06;2.38;;;0.50;;
29854;SDS011;16733;48.738;9.106;2022-12-31T01:32:32;0.85;;;0.47;;
29854;SDS011;16733;48.738;9.106;2022-12-31T01:34:58;1.38;;;0.50;;
29854;SDS011;16733;48.738;9.106;2022-12-31T01:37:24;1.48;;;0.50;;
29854;SDS011;16733;48.738;9.106;2022-12-31T01:39:49;1.00;;;0.30;;
29854;SDS011;16733;48.738;9.106;2022-12-31T01:42:15;0.52;;;0.40;;
29854;SDS011;16733;48.738;9.106;2022-12-31T01:47:10;0.50;;;0.45;;
29854;SDS011;16733;48.738;9.106;2022-12-31T01:49:50;0.60;;;0.45;;
29854;SDS011;16733;48.738;9.106;2022-12-31T01:52:32;0.75;;;0.50;;
29854;SDS011;16733;48.738;9.106;2022-12-31T01:55:48;1.23;;;0.40;;
29854;SDS011;16733;48.738;9.106;2022-12-31T01:57:48;2.08;;;0.40;;
29854;SDS011;16733;48.738;9.106;2022-12-31T02:00:17;0.68;;;0.50;;
29854;SDS011;16733;48.738;9.106;2022-12-31T02:02:43;0.60;;;0.40;;
29854;SDS011;16733;48.738;9.106;2022-12-31T02:05:17;0.55;;;0.40;;
29854;SDS011;16733;48.738;9.106;2022-12-31T02:07:47;0.95;;;0.52;;
29854;SDS011;16733;48.738;9.106;2022-12-31T02:10:13;2.83;;;0.43;;
29854;SDS011;16733;48.738;9.106;2022-12-31T02:12:39;1.25;;;0.40;;
29854;SDS011;16733;48.738;9.106;2022-12-31T02:15:05;0.50;;;0.40;;
29854;SDS011;16733;48.738;9.106;2022-12-31T02:17:33;0.52;;;0.40;;
29854;SDS011;16733;48.738;9.106;2022-12-31T02:30:59;0.57;;;0.40;;
29854;SDS011;16733;48.738;9.106;2022-12-31T02:33:29;0.45;;;0.40;;
29854;SDS011;16733;48.738;9.106;2022-12-31T02:36:01;2.72;;;0.45;;
29854;SDS011;16733;48.738;9.106;2022-12-31T02:38:32;1.58;;;0.40;;
29854;SDS011;16733;48.738;9.106;2022-12-31T02:41:01;0.30;;;0.30;;
29854;SDS011;16733;48.738;9.106;2022-12-31T02:43:26;0.82;;;0.50;;
29854;SDS011;16733;48.738;9.106;2022-12-31T02:48:47;0.47;;;0.45;;
29854;SDS011;16733;48.738;9.106;2022-12-31T02:54:17;0.45;;;0.30;;
29854;SDS011;16733;48.738;9.106;2022-12-31T02:57:14;1.40;;;0.60;;
29854;SDS011;16733;48.738;9.106;2022-12-31T03:00:04;2.45;;;0.40;;
29854;SDS011;16733;48.738;9.106;2022-12-31T03:02:50;2.40;;;0.50;;
29854;SDS011;16733;48.738;9.106;2022-12-31T03:05:18;1.95;;;0.30;;
29854;SDS011;16733;48.738;9.106;2022-12-31T03:07:47;2.60;;;0.30;;
29854;SDS011;16733;48.738;9.106;2022-12-31T03:10:13;1.42;;;0.50;;
29854;SDS011;16733;48.738;9.106;2022-12-31T03:12:39;0.82;;;0.40;;
29854;SDS011;16733;48.738;9.106;2022-12-31T03:15:30;5.68;;;0.40;;
29854;SDS011;16733;48.738;9.106;2022-12-31T03:20:32;1.13;;;0.95;;
29854;SDS011;16733;48.738;9.106;2022-12-31T03:23:32;0.95;;;0.50;;
29854;SDS011;16733;48.738;9.106;2022-12-31T03:26:03;0.63;;;0.40;;
29854;SDS011;16733;48.738;9.106;2022-12-31T03:28:37;0.70;;;0.28;;
29854;SDS011;16733;48.738;9.106;2022-12-31T03:31:05;1.27;;;0.40;;
29854;SDS011;16733;48.738;9.106;2022-12-31T03:33:32;0.45;;;0.35;;
29854;SDS011;16733;48.738;9.106;2022-12-31T03:36:06;0.50;;;0.30;;
29854;SDS011;16733;48.738;9.106;2022-12-31T03:38:34;0.30;;;0.30;;
29854;SDS011;16733;48.738;9.106;2022-12-31T03:40:59;0.68;;;0.20;;
29854;SDS011;16733;48.738;9.106;2022-12-31T03:43:25;0.40;;;0.40;;
29854;SDS011;16733;48.738;9.106;2022-12-31T03:45:51;0.35;;;0.35;;
29854;SDS011;16733;48.738;9.106;2022-12-31T03:48:18;0.30;;;0.30;;
29854;SDS011;16733;48.738;9.106;2022-12-31T03:50:44;0.43;;;0.40;;
29854;SDS011;16733;48.738;9.106;2022-12-31T03:53:10;0.30;;;0.30;;
29854;SDS011;16733;48.738;9.106;2022-12-31T03:55:36;0.40;;;0.25;;
29854;SDS011;16733;48.738;9.106;2022-12-31T03:58:01;0.40;;;0.40;;
29854;SDS011;16733;48.738;9.106;2022-12-31T04:00:27;0.52;;;0.30;;
29854;SDS011;16733;48.738;9.106;2022-12-31T04:02:53;1.45;;;0.38;;
29854;SDS011;16733;48.738;9.106;2022-12-31T04:05:19;0.20;;;0.20;;
29854;SDS011;16733;48.738;9.106;2022-12-31T04:07:45;2.65;;;0.32;;
29854;SDS011;16733;48.738;9.106;2022-12-31T04:10:11;0.38;;;0.22;;
29854;SDS011;16733;48.738;9.106;2022-12-31T04:12:38;1.05;;;0.38;;
29854;SDS011;16733;48.738;9.106;2022-12-31T04:15:05;0.45;;;0.32;;
29854;SDS011;16733;48.738;9.106;2022-12-31T04:17:32;0.30;;;0.30;;
29854;SDS011;16733;48.738;9.106;2022-12-31T04:19:58;2.28;;;0.25;;
29854;SDS011;16733;48.738;9.106;2022-12-31T04:22:24;0.90;;;0.30;;
29854;SDS011;16733;48.738;9.106;2022-12-31T04:24:49;1.55;;;0.20;;
29854;SDS011;16733;48.738;9.106;2022-12-31T04:27:15;0.90;;;0.43;;
29854;SDS011;16733;48.738;9.106;2022-12-31T04:29:41;0.40;;;0.30;;
29854;SDS011;16733;48.738;9.106;2022-12-31T04:32:06;1.23;;;0.90;;
29854;SDS011;16733;48.738;9.106;2022-12-31T04:34:33;0.93;;;0.30;;
29854;SDS011;16733;48.738;9.106;2022-12-31T04:36:59;0.40;;;0.30;;
29854;SDS011;16733;48.738;9.106;2022-12-31T04:39:25;0.50;;;0.30;;
29854;SDS011;16733;48.738;9.106;2022-12-31T04:41:51;0.30;;;0.30;;
29854;SDS011;16733;48.738;9.106;2022-12-31T04:44:17;0.65;;;0.20;;
29854;SDS011;16733;48.738;9.106;2022-12-31T04:46:43;0.30;;;0.30;;
29854;SDS011;16733;48.738;9.106;2022-12-31T04:49:08;0.55;;;0.35;;
29854;SDS011;16733;48.738;9.106;2022-12-31T04:51:34;0.30;;;0.30;;
29854;SDS011;16733;48.738;9.106;2022-12-31T04:54:00;0.50;;;0.30;;
29854;SDS011;16733;48.738;9.106;2022-12-31T04:56:26;0.28;;;0.20;;
29854;SDS011;16733;48.738;9.106;2022-12-31T04:58:52;1.02;;;0.30;;
29854;SDS011;16733;48.738;9.106;2022-12-31T05:01:18;0.22;;;0.20;;
29854;SDS011;16733;48.738;9.106;2022-12-31T05:03:44;0.13;;;0.13;;
29854;SDS011;16733;48.738;9.106;2022-12-31T05:06:11;0.40;;;0.20;;
29854;SDS011;16733;48.738;9.106;2022-12-31T05:08:44;0.30;;;0.30;;
29854;SDS011;16733;48.738;9.106;2022-12-31T05:11:11;2.05;;;1.58;;
29854;SDS011;16733;48.738;9.106;2022-12-31T05:13:36;0.40;;;0.20;;
29854;SDS011;16733;48.738;9.106;2022-12-31T05:16:06;2.78;;;0.30;;
29854;SDS011;16733;48.738;9.106;2022-12-31T05:18:32;0.30;;;0.30;;
29854;SDS011;16733;48.738;9.106;2022-12-31T05:20:59;4.10;;;0.43;;
29854;SDS011;16733;48.738;9.106;2022-12-31T05:23:25;0.57;;;0.30;;
29854;SDS011;16733;48.738;9.106;2022-12-31T05:25:51;2.40;;;0.35;;
29854;SDS011;16733;48.738;9.106;2022-12-31T05:28:17;0.38;;;0.38;;
29854;SDS011;16733;48.738;9.106;2022-12-31T05:30:43;0.30;;;0.30;;
29854;SDS011;16733;48.738;9.106;2022-12-31T05:33:13;0.30;;;0.30;;
29854;SDS011;16733;48.738;9.106;2022-12-31T05:35:38;0.88;;;0.40;;
29854;SDS011;16733;48.738;9.106;2022-12-31T05:38:04;1.75;;;0.40;;
29854;SDS011;16733;48.738;9.106;2022-12-31T05:40:29;1.65;;;0.40;;
29854;SDS011;16733;48.738;9.106;2022-12-31T05:42:55;0.30;;;0.30;;
29854;SDS011;16733;48.738;9.106;2022-12-31T05:45:20;5.05;;;0.50;;
29854;SDS011;16733;48.738;9.106;2022-12-31T05:47:46;1.00;;;0.47;;
29854;SDS011;16733;48.738;9.106;2022-12-31T05:50:13;0.30;;;0.30;;
29854;SDS011;16733;48.738;9.106;2022-12-31T05:52:40;0.30;;;0.30;;
29854;SDS011;16733;48.738;9.106;2022-12-31T05:55:09;0.50;;;0.30;;
29854;SDS011;16733;48.738;9.106;2022-12-31T05:57:35;0.50;;;0.35;;
29854;SDS011;16733;48.738;9.106;2022-12-31T06:00:02;0.35;;;0.30;;
29854;SDS011;16733;48.738;9.106;2022-12-31T06:02:28;3.13;;;0.30;;
29854;SDS011;16733;48.738;9.106;2022-12-31T06:04:54;2.50;;;0.30;;
29854;SDS011;16733;48.738;9.106;2022-12-31T06:07:20;0.43;;;0.32;;
29854;SDS011;16733;48.738;9.106;2022-12-31T06:09:45;0.30;;;0.30;;
29854;SDS011;16733;48.738;9.106;2022-12-31T06:12:11;0.30;;;0.30;;
29854;SDS011;16733;48.738;9.106;2022-12-31T06:14:36;0.38;;;0.25;;
29854;SDS011;16733;48.738;9.106;2022-12-31T06:17:02;0.32;;;0.32;;
29854;SDS011;16733;48.738;9.106;2022-12-31T06:19:27;0.50;;;0.30;;
29854;SDS011;16733;48.738;9.106;2022-12-31T06:21:53;0.60;;;0.50;;
29854;SDS011;16733;48.738;9.106;2022-12-31T06:24:19;0.63;;;0.40;;
29854;SDS011;16733;48.738;9.106;2022-12-31T06:26:44;0.68;;;0.40;;
29854;SDS011;16733;48.738;9.106;2022-12-31T06:29:10;1.15;;;0.82;;
29854;SDS011;16733;48.738;9.106;2022-12-31T06:31:35;0.30;;;0.30;;
29854;SDS011;16733;48.738;9.106;2022-12-31T06:34:02;0.35;;;0.35;;
29854;SDS011;16733;48.738;9.106;2022-12-31T06:36:28;0.60;;;0.30;;
29854;SDS011;16733;48.738;9.106;2022-12-31T06:38:54;0.30;;;0.30;;
29854;SDS011;16733;48.738;9.106;2022-12-31T06:41:19;2.17;;;0.38;;
29854;SDS011;16733;48.738;9.106;2022-12-31T06:43:45;2.40;;;0.40;;
29854;SDS011;16733;48.738;9.106;2022-12-31T06:46:11;0.40;;;0.30;;
29854;SDS011;16733;48.738;9.106;2022-12-31T06:48:39;0.30;;;0.30;;
29854;SDS011;16733;48.738;9.106;2022-12-31T06:51:08;2.55;;;0.40;;
29854;SDS011;16733;48.738;9.106;2022-12-31T06:53:42;0.30;;;0.30;;
29854;SDS011;16733;48.738;9.106;2022-12-31T06:56:11;0.70;;;0.30;;
29854;SDS011;16733;48.738;9.106;2022-12-31T06:58:39;0.30;;;0.30;;
29854;SDS011;16733;48.738;9.106;2022-12-31T07:01:19;0.40;;;0.40;;
29854;SDS011;16733;48.738;9.106;2022-12-31T07:09:56;0.40;;;0.30;;
29854;SDS011;16733;48.738;9.106;2022-12-31T07:15:24;1.27;;;0.47;;
29854;SDS011;16733;48.738;9.106;2022-12-31T07:20:31;1.63;;;0.50;;
29854;SDS011;16733;48.738;9.106;2022-12-31T07:22:57;0.50;;;0.50;;
29854;SDS011;16733;48.738;9.106;2022-12-31T07:25:23;0.85;;;0.40;;
29854;SDS011;16733;48.738;9.106;2022-12-31T07:28:08;0.50;;;0.30;;
29854;SDS011;16733;48.738;9.106;2022-12-31T07:30:51;2.42;;;0.40;;
29854;SDS011;16733;48.738;9.106;2022-12-31T07:33:45;0.30;;;0.30;;
29854;SDS011;16733;48.738;9.106;2022-12-31T07:44:08;0.30;;;0.30;;
29854;SDS011;16733;48.738;9.106;2022-12-31T07:49:25;0.57;;;0.40;;
29854;SDS011;16733;48.738;9.106;2022-12-31T07:51:52;0.73;;;0.30;;
29854;SDS011;16733;48.738;9.106;2022-12-31T07:54:18;0.30;;;0.30;;
29854;SDS011;16733;48.738;9.106;2022-12-31T07:56:44;0.30;;;0.20;;
29854;SDS011;16733;48.738;9.106;2022-12-31T08:02:01;0.40;;;0.40;;
29854;SDS011;16733;48.738;9.106;2022-12-31T08:10:02;0.35;;;0.30;;
29854;SDS011;16733;48.738;9.106;2022-12-31T08:12:35;3.15;;;1.00;;
29854;SDS011;16733;48.738;9.106;2022-12-31T08:15:10;0.52;;;0.40;;
29854;SDS011;16733;48.738;9.106;2022-12-31T08:17:40;3.75;;;0.75;;
29854;SDS011;16733;48.738;9.106;2022-12-31T08:20:10;1.42;;;0.52;;
29854;SDS011;16733;48.738;9.106;2022-12-31T08:22:58;1.23;;;0.40;;
29854;SDS011;16733;48.738;9.106;2022-12-31T08:26:02;0.57;;;0.45;;
29854;SDS011;16733;48.738;9.106;2022-12-31T08:34:15;0.68;;;0.52;;
29854;SDS011;16733;48.738;9.106;2022-12-31T08:40:25;0.30;;;0.30;;
29854;SDS011;16733;48.738;9.106;2022-12-31T08:43:05;3.00;;;0.40;;
29854;SDS011;16733;48.738;9.106;2022-12-31T08:45:54;0.40;;;0.32;;
29854;SDS011;16733;48.738;9.106;2022-12-31T08:48:41;0.52;;;0.30;;
29854;SDS011;16733;48.738;9.106;2022-12-31T08:51:11;0.73;;;0.40;;
29854;SDS011;16733;48.738;9.106;2022-12-31T08:53:41;3.13;;;0.30;;
29854;SDS011;16733;48.738;9.106;2022-12-31T08:56:09;0.90;;;0.60;;
29854;SDS011;16733;48.738;9.106;2022-12-31T09:01:29;1.90;;;0.40;;
29854;SDS011;16733;48.738;9.106;2022-12-31T09:04:10;3.70;;;0.40;;
29854;SDS011;16733;48.738;9.106;2022-12-31T09:06:48;0.65;;;0.40;;
29854;SDS011;16733;48.738;9.106;2022-12-31T09:12:21;1.00;;;0.40;;
29854;SDS011;16733;48.738;9.106;2022-12-31T09:18:21;0.30;;;0.30;;
29854;SDS011;16733;48.738;9.106;2022-12-31T09:20:48;0.88;;;0.50;;
29854;SDS011;16733;48.738;9.106;2022-12-31T09:23:14;0.40;;;0.30;;
29854;SDS011;16733;48.738;9.106;2022-12-31T09:25:41;1.48;;;1.05;;
29854;SDS011;16733;48.738;9.106;2022-12-31T09:29:09;0.80;;;0.40;;
29854;SDS011;16733;48.738;9.106;2022-12-31T09:31:56;0.40;;;0.30;;
29854;SDS011;16733;48.738;9.106;2022-12-31T09:34:36;0.90;;;0.35;;
29854;SDS011;16733;48.738;9.106;2022-12-31T09:56:28;0.73;;;0.50;;
29854;SDS011;16733;48.738;9.106;2022-12-31T10:01:49;0.43;;;0.43;;
29854;SDS011;16733;48.738;9.106;2022-12-31T10:20:15;0.60;;;0.35;;
29854;SDS011;16733;48.738;9.106;2022-12-31T10:28:32;0.30;;;0.30;;
29854;SDS011;16733;48.738;9.106;2022-12-31T10:31:11;1.42;;;0.20;;
29854;SDS011;16733;48.738;9.106;2022-12-31T10:33:54;0.40;;;0.13;;
29854;SDS011;16733;48.738;9.106;2022-12-31T10:37:12;1.67;;;0.20;;
29854;SDS011;16733;48.738;9.106;2022-12-31T10:47:39;0.30;;;0.30;;
29854;SDS011;16733;48.738;9.106;2022-12-31T11:02:06;0.63;;;0.30;;
29854;SDS011;16733;48.738;9.106;2022-12-31T11:04:53;0.90;;;0.28;;
29854;SDS011;16733;48.738;9.106;2022-12-31T11:07:55;0.95;;;0.40;;
29854;SDS011;16733;48.738;9.106;2022-12-31T11:41:54;0.13;;;0.13;;
29854;SDS011;16733;48.738;9.106;2022-12-31T11:47:06;0.20;;;0.20;;
29854;SDS011;16733;48.738;9.106;2022-12-31T11:50:12;0.80;;;0.40;;
29854;SDS011;16733;48.738;9.106;2022-12-31T11:59:43;0.45;;;0.30;;
29854;SDS011;16733;48.738;9.106;2022-12-31T12:04:34;1.17;;;0.30;;
29854;SDS011;16733;48.738;9.106;2022-12-31T12:06:59;2.75;;;0.38;;
29854;SDS011;16733;48.738;9.106;2022-12-31T12:09:27;0.47;;;0.30;;
29854;SDS011;16733;48.738;9.106;2022-12-31T12:11:58;0.28;;;0.28;;
29854;SDS011;16733;48.738;9.106;2022-12-31T12:14:29;0.82;;;0.22;;
29854;SDS011;16733;48.738;9.106;2022-12-31T12:17:00;1.15;;;0.22;;
29854;SDS011;16733;48.738;9.106;2022-12-31T12:19:29;0.10;;;0.10;;
29854;SDS011;16733;48.738;9.106;2022-12-31T12:21:56;0.95;;;0.30;;
29854;SDS011;16733;48.738;9.106;2022-12-31T12:24:24;0.85;;;0.40;;
29854;SDS011;16733;48.738;9.106;2022-12-31T12:26:53;0.53;;;0.20;;
29854;SDS011;16733;48.738;9.106;2022-12-31T12:29:21;0.30;;;0.30;;
29854;SDS011;16733;48.738;9.106;2022-12-31T12:31:57;4.20;;;0.30;;
29854;SDS011;16733;48.738;9.106;2022-12-31T12:34:29;0.30;;;0.28;;
29854;SDS011;16733;48.738;9.106;2022-12-31T12:36:56;0.63;;;0.20;;
29854;SDS011;16733;48.738;9.106;2022-12-31T12:39:24;0.38;;;0.22;;
29854;SDS011;16733;48.738;9.106;2022-12-31T12:42:01;0.47;;;0.22;;
29854;SDS011;16733;48.738;9.106;2022-12-31T12:44:28;0.50;;;0.28;;
29854;SDS011;16733;48.738;9.106;2022-12-31T12:46:54;1.20;;;0.38;;
29854;SDS011;16733;48.738;9.106;2022-12-31T12:57:38;0.60;;;0.20;;
29854;SDS011;16733;48.738;9.106;2022-12-31T13:06:54;0.93;;;0.30;;
29854;SDS011;16733;48.738;9.106;2022-12-31T13:14:41;0.22;;;0.22;;
29854;SDS011;16733;48.738;9.106;2022-12-31T13:23:25;1.17;;;0.30;;
29854;SDS011;16733;48.738;9.106;2022-12-31T13:26:09;3.97;;;0.28;;
29854;SDS011;16733;48.738;9.106;2022-12-31T13:28:47;0.75;;;0.30;;
29854;SDS011;16733;48.738;9.106;2022-12-31T13:31:17;0.20;;;0.20;;
29854;SDS011;16733;48.738;9.106;2022-12-31T13:33:51;0.98;;;0.30;;
29854;SDS011;16733;48.738;9.106;2022-12-31T13:36:38;1.63;;;0.35;;
29854;SDS011;16733;48.738;9.106;2022-12-31T13:39:09;0.30;;;0.30;;
29854;SDS011;16733;48.738;9.106;2022-12-31T13:41:42;0.65;;;0.35;;
29854;SDS011;16733;48.738;9.106;2022-12-31T13:49:58;1.63;;;0.50;;
29854;SDS011;16733;48.738;9.106;2022-12-31T14:00:39;1.02;;;0.50;;
29854;SDS011;16733;48.738;9.106;2022-12-31T14:03:23;0.73;;;0.40;;
29854;SDS011;16733;48.738;9.106;2022-12-31T14:08:32;1.45;;;0.40;;
29854;SDS011;16733;48.738;9.106;2022-12-31T14:16:39;3.50;;;0.40;;
29854;SDS011;16733;48.738;9.106;2022-12-31T14:22:00;0.73;;;0.52;;
29854;SDS011;16733;48.738;9.106;2022-12-31T14:24:47;2.17;;;1.33;;
29854;SDS011;16733;48.738;9.106;2022-12-31T14:30:41;0.40;;;0.40;;
29854;SDS011;16733;48.738;9.106;2022-12-31T14:38:26;2.08;;;0.90;;
29854;SDS011;16733;48.738;9.106;2022-12-31T14:46:57;1.95;;;0.40;;
29854;SDS011;16733;48.738;9.106;2022-12-31T14:49:48;0.55;;;0.35;;
29854;SDS011;16733;48.738;9.106;2022-12-31T14:57:37;0.32;;;0.30;;
29854;SDS011;16733;48.738;9.106;2022-12-31T15:02:55;1.60;;;0.40;;
29854;SDS011;16733;48.738;9.106;2022-12-31T15:05:31;0.63;;;0.30;;
29854;SDS011;16733;48.738;9.106;2022-12-31T15:21:53;0.73;;;0.60;;
29854;SDS011;16733;48.738;9.106;2022-12-31T15:24:32;0.90;;;0.50;;
29854;SDS011;16733;48.738;9.106;2022-12-31T15:27:16;0.60;;;0.50;;
29854;SDS011;16733;48.738;9.106;2022-12-31T15:29:52;1.15;;;0.60;;
29854;SDS011;16733;48.738;9.106;2022-12-31T15:32:18;0.90;;;0.52;;
29854;SDS011;16733;48.738;9.106;2022-12-31T15:34:58;1.15;;;0.55;;
29854;SDS011;16733;48.738;9.106;2022-12-31T15:37:43;3.28;;;2.20;;
29854;SDS011;16733;48.738;9.106;2022-12-31T15:42:48;1.60;;;1.10;;
29854;SDS011;16733;48.738;9.106;2022-12-31T15:45:38;1.25;;;0.90;;
29854;SDS011;16733;48.738;9.106;2022-12-31T15:48:15;1.13;;;0.60;;
29854;SDS011;16733;48.738;9.106;2022-12-31T15:50:43;0.70;;;0.60;;
29854;SDS011;16733;48.738;9.106;2022-12-31T15:53:16;2.85;;;0.60;;
29854;SDS011;16733;48.738;9.106;2022-12-31T15:55:48;0.60;;;0.50;;
29854;SDS011;16733;48.738;9.106;2022-12-31T15:58:18;1.17;;;0.63;;
29854;SDS011;16733;48.738;9.106;2022-12-31T16:03:40;0.57;;;0.50;;
29854;SDS011;16733;48.738;9.106;2022-12-31T16:06:09;0.75;;;0.70;;
29854;SDS011;16733;48.738;9.106;2022-12-31T16:08:37;0.60;;;0.60;;
29854;SDS011;16733;48.738;9.106;2022-12-31T16:11:07;0.68;;;0.52;;
29854;SDS011;16733;48.738;9.106;2022-12-31T16:13:34;1.38;;;0.73;;
29854;SDS011;16733;48.738;9.106;2022-12-31T16:16:05;4.10;;;1.00;;
29854;SDS011;16733;48.738;9.106;2022-12-31T16:18:36;2.85;;;1.83;;
29854;SDS011;16733;48.738;9.106;2022-12-31T16:23:52;1.48;;;0.80;;
29854;SDS011;16733;48.738;9.106;2022-12-31T16:26:19;1.13;;;0.80;;
29854;SDS011;16733;48.738;9.106;2022-12-31T16:28:46;2.03;;;0.82;;
29854;SDS011;16733;48.738;9.106;2022-12-31T16:31:14;3.78;;;1.98;;
29854;SDS011;16733;48.738;9.106;2022-12-31T16:33:41;5.43;;;3.08;;
29854;SDS011;16733;48.738;9.106;2022-12-31T16:36:21;2.75;;;1.48;;
29854;SDS011;16733;48.738;9.106;2022-12-31T16:38:48;2.13;;;1.40;;
29854;SDS011;16733;48.738;9.106;2022-12-31T16:41:17;1.90;;;1.27;;
29854;SDS011;16733;48.738;9.106;2022-12-31T16:43:46;1.67;;;0.95;;
29854;SDS011;16733;48.738;9.106;2022-12-31T16:46:19;1.10;;;0.93;;
29854;SDS011;16733;48.738;9.106;2022-12-31T16:48:56;6.70;;;3.10;;
29854;SDS011;16733;48.738;9.106;2022-12-31T16:51:29;1.92;;;1.20;;
29854;SDS011;16733;48.738;9.106;2022-12-31T16:53:57;1.30;;;0.70;;
29854;SDS011;16733;48.738;9.106;2022-12-31T16:56:28;1.85;;;0.93;;
29854;SDS011;16733;48.738;9.106;2022-12-31T17:01:26;1.55;;;0.90;;
29854;SDS011;16733;48.738;9.106;2022-12-31T17:03:56;1.42;;;1.05;;
29854;SDS011;16733;48.738;9.106;2022-12-31T17:06:23;1.98;;;1.00;;
29854;SDS011;16733;48.738;9.106;2022-12-31T17:13:55;1.38;;;0.88;;
29854;SDS011;16733;48.738;9.106;2022-12-31T17:16:20;1.35;;;0.60;;
29854;SDS011;16733;48.738;9.106;2022-12-31T17:18:46;1.13;;;0.70;;
29854;SDS011;16733;48.738;9.106;2022-12-31T17:21:12;1.45;;;0.70;;
29854;SDS011;16733;48.738;9.106;2022-12-31T17:23:38;1.35;;;0.80;;
29854;SDS011;16733;48.738;9.106;2022-12-31T17:26:09;1.02;;;0.63;;
29854;SDS011;16733;48.738;9.106;2022-12-31T17:28:39;1.40;;;1.13;;
29854;SDS011;16733;48.738;9.106;2022-12-31T17:36:39;1.77;;;1.20;;
29854;SDS011;16733;48.738;9.106;2022-12-31T17:39:18;3.00;;;1.50;;
29854;SDS011;16733;48.738;9.106;2022-12-31T17:41:45;3.65;;;1.27;;
29854;SDS011;16733;48.738;9.106;2022-12-31T17:44:18;1.10;;;0.80;;
29854;SDS011;16733;48.738;9.106;2022-12-31T17:46:47;1.65;;;0.90;;
29854;SDS011;16733;48.738;9.106;2022-12-31T17:49:13;1.67;;;1.20;;
29854;SDS011;16733;48.738;9.106;2022-12-31T17:51:39;2.35;;;1.27;;
29854;SDS011;16733;48.738;9.106;2022-12-31T17:54:15;2.85;;;1.30;;
29854;SDS011;16733;48.738;9.106;2022-12-31T17:56:42;1.75;;;1.23;;
29854;SDS011;16733;48.738;9.106;2022-12-31T17:59:14;2.28;;;1.27;;
29854;SDS011;16733;48.738;9.106;2022-12-31T18:01:42;1.65;;;0.90;;
29854;SDS011;16733;48.738;9.106;2022-12-31T18:04:14;1.55;;;1.15;;
29854;SDS011;16733;48.738;9.106;2022-12-31T18:06:41;1.33;;;0.90;;
29854;SDS011;16733;48.738;9.106;2022-12-31T18:09:07;1.58;;;0.93;;
29854;SDS011;16733;48.738;9.106;2022-12-31T18:11:34;1.42;;;0.90;;
29854;SDS011;16733;48.738;9.106;2022-12-31T18:14:00;1.08;;;0.82;;
29854;SDS011;16733;48.738;9.106;2022-12-31T18:16:26;3.92;;;1.45;;
29854;SDS011;16733;48.738;9.106;2022-12-31T18:18:53;1.60;;;1.02;;
29854;SDS011;16733;48.738;9.106;2022-12-31T18:21:26;1.45;;;1.10;;
29854;SDS011;16733;48.738;9.106;2022-12-31T18:23:56;2.95;;;1.60;;
29854;SDS011;16733;48.738;9.106;2022-12-31T18:26:23;3.83;;;1.48;;
29854;SDS011;16733;48.738;9.106;2022-12-31T18:28:50;11.50;;;5.90;;
29854;SDS011;16733;48.738;9.106;2022-12-31T18:31:18;3.17;;;1.70;;
29854;SDS011;16733;48.738;9.106;2022-12-31T18:33:54;2.13;;;1.27;;
29854;SDS011;16733;48.738;9.106;2022-12-31T18:36:22;1.95;;;1.35;;
29854;SDS011;16733;48.738;9.106;2022-12-31T18:38:48;1.98;;;1.33;;
29854;SDS011;16733;48.738;9.106;2022-12-31T18:41:18;2.75;;;1.30;;
29854;SDS011;16733;48.738;9.106;2022-12-31T18:43:46;4.20;;;1.27;;
29854;SDS011;16733;48.738;9.106;2022-12-31T18:46:13;2.42;;;1.60;;
29854;SDS011;16733;48.738;9.106;2022-12-31T18:48:40;2.67;;;1.20;;
29854;SDS011;16733;48.738;9.106;2022-12-31T18:51:11;2.60;;;1.35;;
29854;SDS011;16733;48.738;9.106;2022-12-31T18:53:37;1.70;;;1.10;;
29854;SDS011;16733;48.738;9.106;2022-12-31T18:56:03;1.27;;;1.13;;
29854;SDS011;16733;48.738;9.106;2022-12-31T18:58:29;1.80;;;1.13;;
29854;SDS011;16733;48.738;9.106;2022-12-31T19:00:54;1.27;;;0.90;;
29854;SDS011;16733;48.738;9.106;2022-12-31T19:03:21;2.22;;;1.20;;
29854;SDS011;16733;48.738;9.106;2022-12-31T19:05:48;4.35;;;1.70;;
29854;SDS011;16733;48.738;9.106;2022-12-31T19:08:15;4.28;;;2.33;;
29854;SDS011;16733;48.738;9.106;2022-12-31T19:10:45;1.55;;;1.05;;
29854;SDS011;16733;48.738;9.106;2022-12-31T19:13:12;1.35;;;0.80;;
29854;SDS011;16733;48.738;9.106;2022-12-31T19:15:41;2.20;;;1.10;;
29854;SDS011;16733;48.738;9.106;2022-12-31T19:18:08;2.13;;;1.20;;
29854;SDS011;16733;48.738;9.106;2022-12-31T19:20:33;1.70;;;1.10;;
29854;SDS011;16733;48.738;9.106;2022-12-31T19:22:59;4.25;;;2.58;;
29854;SDS011;16733;48.738;9.106;2022-12-31T19:25:26;3.13;;;1.60;;
29854;SDS011;16733;48.738;9.106;2022-12-31T19:27:57;2.25;;;1.60;;
29854;SDS011;16733;48.738;9.106;2022-12-31T19:30:32;5.00;;;2.20;;
29854;SDS011;16733;48.738;9.106;2022-12-31T19:32:59;1.90;;;1.23;;
29854;SDS011;16733;48.738;9.106;2022-12-31T19:35:25;6.13;;;3.38;;
29854;SDS011;16733;48.738;9.106;2022-12-31T19:37:51;6.38;;;2.90;;
29854;SDS011;16733;48.738;9.106;2022-12-31T19:40:22;5.88;;;3.17;;
29854;SDS011;16733;48.738;9.106;2022-12-31T19:42:50;5.68;;;2.80;;
29854;SDS011;16733;48.738;9.106;2022-12-31T19:45:21;2.00;;;1.10;;
29854;SDS011;16733;48.738;9.106;2022-12-31T19:47:48;1.58;;;1.30;;
29854;SDS011;16733;48.738;9.106;2022-12-31T19:50:15;3.03;;;1.92;;
29854;SDS011;16733;48.738;9.106;2022-12-31T19:52:43;2.75;;;2.10;;
29854;SDS011;16733;48.738;9.106;2022-12-31T19:55:11;2.92;;;1.55;;